createdAt,value
2019-05-16T00:00:00.707Z,11.20
2019-05-16T00:02:44.242Z,11.10
2019-05-16T00:05:21.156Z,11.10
2019-05-16T00:07:59.048Z,11.10
2019-05-16T00:10:29.095Z,11.20
2019-05-16T00:13:08.366Z,11.20
2019-05-16T00:15:43.681Z,11.20
2019-05-16T00:18:13.197Z,11.10
2019-05-16T00:20:49.709Z,11.10
2019-05-16T00:23:26.055Z,11.10
2019-05-16T00:25:55.518Z,11.00
2019-05-16T00:28:31.347Z,11.00
2019-05-16T00:31:00.810Z,11.00
2019-05-16T00:33:38.007Z,11.00
2019-05-16T00:36:09.153Z,11.00
2019-05-16T00:38:45.834Z,10.90
2019-05-16T00:41:17.762Z,10.80
2019-05-16T00:43:53.067Z,10.80
2019-05-16T00:46:35.669Z,10.70
2019-05-16T00:49:12.359Z,10.70
2019-05-16T00:51:48.152Z,10.80
2019-05-16T00:54:23.882Z,10.80
2019-05-16T00:56:53.841Z,10.80
2019-05-16T00:59:31.278Z,11.00
2019-05-16T01:02:08.994Z,11.00
2019-05-16T01:04:45.065Z,10.90
2019-05-16T01:07:20.816Z,10.90
2019-05-16T01:09:50.279Z,10.90
2019-05-16T01:12:28.220Z,11.00
2019-05-16T01:15:03.816Z,11.00
2019-05-16T01:17:33.270Z,11.00
2019-05-16T01:20:09.338Z,11.10
2019-05-16T01:22:38.861Z,11.10
2019-05-16T01:25:14.867Z,11.10
2019-05-16T01:27:50.385Z,11.00
2019-05-16T01:30:20.068Z,10.90
2019-05-16T01:32:58.139Z,10.80
2019-05-16T01:35:27.850Z,10.90
2019-05-16T01:38:03.739Z,10.90
2019-05-16T01:40:33.189Z,10.70
2019-05-16T01:43:08.972Z,10.70
2019-05-16T01:45:45.281Z,10.80
2019-05-16T01:48:29.166Z,10.90
2019-05-16T01:51:07.624Z,10.80
2019-05-16T01:53:44.078Z,10.60
2019-05-16T01:56:13.525Z,10.70
2019-05-16T01:58:50.695Z,10.50
2019-05-16T02:01:20.152Z,10.60
2019-05-16T02:04:01.955Z,10.50
2019-05-16T02:06:31.555Z,10.60
2019-05-16T02:09:08.119Z,10.60
2019-05-16T02:11:39.060Z,10.60
2019-05-16T02:14:09.500Z,10.40
2019-05-16T02:16:47.739Z,10.40
2019-05-16T02:19:24.344Z,10.50
2019-05-16T02:21:53.858Z,10.70
2019-05-16T02:24:30.302Z,10.60
2019-05-16T02:27:09.367Z,10.60
2019-05-16T02:29:39.969Z,10.60
2019-05-16T02:32:14.989Z,10.60
2019-05-16T02:34:44.513Z,10.60
2019-05-16T02:37:29.109Z,10.70
2019-05-16T02:39:54.588Z,10.70
2019-05-16T02:42:31.188Z,10.70
2019-05-16T02:45:02.421Z,10.70
2019-05-16T02:47:41.986Z,10.80
2019-05-16T02:50:12.174Z,10.70
2019-05-16T02:52:51.732Z,10.70
2019-05-16T02:55:21.758Z,10.70
2019-05-16T02:58:00.767Z,10.80
2019-05-16T03:00:44.960Z,10.80
2019-05-16T03:03:27.659Z,10.90
2019-05-16T03:06:04.790Z,10.90
2019-05-16T03:08:41.704Z,10.90
2019-05-16T03:11:12.029Z,10.90
2019-05-16T03:13:51.949Z,11.00
2019-05-16T03:16:23.012Z,11.00
2019-05-16T03:19:01.348Z,11.10
2019-05-16T03:21:33.930Z,11.00
2019-05-16T03:24:11.401Z,11.00
2019-05-16T03:26:51.264Z,11.00
2019-05-16T03:29:21.898Z,11.10
2019-05-16T03:31:57.034Z,11.20
2019-05-16T03:34:34.420Z,11.20
2019-05-16T03:37:14.378Z,11.10
2019-05-16T03:39:41.225Z,11.20
2019-05-16T03:42:20.477Z,11.20
2019-05-16T03:44:55.539Z,11.10
2019-05-16T03:47:31.666Z,11.10
2019-05-16T03:50:14.737Z,11.10
2019-05-16T03:52:44.183Z,11.10
2019-05-16T03:55:21.426Z,11.20
2019-05-16T03:57:51.742Z,11.20
2019-05-16T04:00:52.326Z,11.20
2019-05-16T04:03:32.045Z,11.20
2019-05-16T04:06:01.120Z,11.30
2019-05-16T04:08:37.596Z,11.30
2019-05-16T04:11:07.075Z,11.40
2019-05-16T04:13:43.009Z,11.40
2019-05-16T04:16:12.521Z,11.40
2019-05-16T04:18:51.409Z,11.40
2019-05-16T04:21:21.802Z,11.30
2019-05-16T04:24:01.010Z,11.40
2019-05-16T04:26:30.923Z,11.40
2019-05-16T04:29:06.896Z,11.50
2019-05-16T04:31:36.375Z,11.60
2019-05-16T04:34:26.525Z,11.60
2019-05-16T04:37:11.468Z,11.60
2019-05-16T04:39:50.492Z,11.70
2019-05-16T04:42:21.299Z,11.70
2019-05-16T04:44:56.280Z,11.70
2019-05-16T04:47:25.746Z,11.60
2019-05-16T04:50:11.381Z,11.60
2019-05-16T04:52:41.798Z,11.70
2019-05-16T04:55:21.063Z,11.70
2019-05-16T04:57:51.208Z,11.70
2019-05-16T05:00:31.629Z,11.70
2019-05-16T05:03:06.205Z,11.80
2019-05-16T05:05:42.819Z,11.90
2019-05-16T05:08:25.509Z,12.00
2019-05-16T05:11:01.698Z,11.80
2019-05-16T05:13:37.171Z,11.90
2019-05-16T05:16:13.332Z,12.00
2019-05-16T05:18:51.433Z,12.00
2019-05-16T05:21:26.673Z,12.00
2019-05-16T05:24:02.244Z,12.00
2019-05-16T05:26:31.706Z,12.00
2019-05-16T05:29:10.216Z,12.10
2019-05-16T05:31:44.812Z,12.20
2019-05-16T05:34:16.871Z,12.30
2019-05-16T05:36:52.796Z,12.30
2019-05-16T05:39:30.316Z,12.30
2019-05-16T05:42:00.168Z,12.40
2019-05-16T05:44:36.079Z,12.30
2019-05-16T05:47:12.011Z,12.30
2019-05-16T05:50:00.871Z,12.40
2019-05-16T05:52:30.576Z,12.50
2019-05-16T05:55:06.730Z,12.50
2019-05-16T05:57:36.252Z,12.50
2019-05-16T06:00:14.827Z,12.60
2019-05-16T06:02:44.295Z,12.60
2019-05-16T06:05:21.207Z,12.60
2019-05-16T06:07:51.084Z,12.60
2019-05-16T06:10:27.608Z,12.60
2019-05-16T06:12:57.068Z,12.80
2019-05-16T06:15:33.929Z,12.80
2019-05-16T06:18:03.392Z,12.90
2019-05-16T06:20:45.831Z,12.90
2019-05-16T06:23:15.297Z,12.90
2019-05-16T06:25:44.763Z,13.00
2019-05-16T06:28:21.297Z,13.00
2019-05-16T06:30:57.854Z,13.20
2019-05-16T06:33:33.826Z,13.20
2019-05-16T06:36:03.365Z,13.20
2019-05-16T06:38:40.534Z,13.10
2019-05-16T06:41:10.798Z,13.30
2019-05-16T06:43:46.948Z,13.40
2019-05-16T06:46:16.404Z,13.50
2019-05-16T06:48:45.867Z,13.50
2019-05-16T06:51:22.490Z,13.60
2019-05-16T06:54:05.344Z,13.70
2019-05-16T06:56:41.933Z,13.80
2019-05-16T06:59:11.444Z,13.90
2019-05-16T07:01:41.094Z,14.00
2019-05-16T07:04:24.341Z,14.20
2019-05-16T07:07:03.100Z,14.40
2019-05-16T07:09:56.109Z,14.50
2019-05-16T07:12:12.007Z,14.70
2019-05-16T07:14:50.591Z,15.00
2019-05-16T07:17:20.302Z,15.40
2019-05-16T07:19:50.385Z,15.70
2019-05-16T07:22:26.271Z,15.90
2019-05-16T07:24:55.721Z,16.00
2019-05-16T07:27:31.285Z,16.00
2019-05-16T07:30:01.421Z,16.30
2019-05-16T07:32:31.066Z,16.30
2019-05-16T07:35:09.721Z,16.40
2019-05-16T07:37:40.043Z,16.40
2019-05-16T07:40:23.602Z,16.40
2019-05-16T07:42:54.492Z,16.60
2019-05-16T07:45:30.891Z,16.60
2019-05-16T07:48:07.626Z,16.70
2019-05-16T07:50:37.078Z,16.90
2019-05-16T07:53:21.499Z,17.00
2019-05-16T07:56:00.073Z,17.10
2019-05-16T07:58:36.458Z,17.10
2019-05-16T08:01:13.127Z,17.00
2019-05-16T08:03:50.847Z,17.10
2019-05-16T08:06:20.689Z,17.20
2019-05-16T08:08:56.725Z,17.20
2019-05-16T08:11:26.304Z,17.10
2019-05-16T08:14:02.679Z,17.30
2019-05-16T08:16:32.197Z,17.50
2019-05-16T08:19:10.286Z,17.60
2019-05-16T08:21:45.523Z,17.70
2019-05-16T08:24:16.305Z,17.80
2019-05-16T08:26:45.892Z,18.00
2019-05-16T08:29:22.483Z,18.10
2019-05-16T08:32:02.147Z,18.10
2019-05-16T08:34:40.798Z,18.00
2019-05-16T08:37:32.779Z,18.00
2019-05-16T08:39:47.135Z,18.00
2019-05-16T08:42:16.915Z,17.80
2019-05-16T08:44:46.513Z,17.80
2019-05-16T08:50:15.414Z,18.00
2019-05-16T08:52:44.489Z,18.00
2019-05-16T08:55:26.988Z,18.00
2019-05-16T08:57:56.436Z,18.10
2019-05-16T09:00:33.741Z,18.00
2019-05-16T09:03:03.184Z,18.20
2019-05-16T09:05:45.299Z,18.30
2019-05-16T09:08:14.817Z,18.30
2019-05-16T09:10:30.559Z,17.80
2019-05-16T09:11:01.695Z,18.40
2019-05-16T09:13:22.581Z,18.50
2019-05-16T09:15:58.948Z,18.60
2019-05-16T09:18:45.889Z,18.70
2019-05-16T09:21:12.299Z,18.70
2019-05-16T09:23:41.813Z,18.70
2019-05-16T09:26:19.836Z,18.60
2019-05-16T09:28:49.094Z,18.50
2019-05-16T09:31:27.572Z,18.50
2019-05-16T09:34:03.308Z,18.50
2019-05-16T09:36:32.764Z,18.50
2019-05-16T09:39:09.113Z,18.60
2019-05-16T09:41:53.094Z,18.50
2019-05-16T09:44:10.071Z,18.50
2019-05-16T09:46:47.134Z,18.60
2019-05-16T09:49:24.391Z,18.60
2019-05-16T09:51:56.634Z,18.60
2019-05-16T09:54:32.436Z,18.70
2019-05-16T09:57:17.497Z,18.70
2019-05-16T09:59:47.297Z,18.70
2019-05-16T10:02:23.681Z,18.70
2019-05-16T10:04:53.132Z,18.70
2019-05-16T10:07:38.503Z,18.80
2019-05-16T10:10:08.471Z,18.70
2019-05-16T10:12:44.659Z,18.70
2019-05-16T10:15:17.637Z,18.70
2019-05-16T10:17:54.205Z,18.60
2019-05-16T10:20:23.725Z,18.50
2019-05-16T10:22:59.438Z,18.50
2019-05-16T10:25:37.767Z,18.50
2019-05-16T10:28:06.541Z,18.40
2019-05-16T10:30:42.442Z,18.30
2019-05-16T10:33:11.974Z,18.20
2019-05-16T10:35:48.357Z,17.90
2019-05-16T10:38:28.096Z,17.80
2019-05-16T10:41:07.174Z,17.60
2019-05-16T10:43:43.155Z,17.30
2019-05-16T10:46:12.756Z,17.10
2019-05-16T10:48:48.494Z,17.00
2019-05-16T10:51:18.009Z,16.90
2019-05-16T10:54:05.879Z,16.80
2019-05-16T10:56:40.520Z,16.80
2019-05-16T10:59:51.057Z,16.70
2019-05-16T11:01:56.369Z,16.60
2019-05-16T11:04:49.803Z,16.50
2019-05-16T11:07:03.820Z,16.40
2019-05-16T11:09:53.523Z,16.40
2019-05-16T11:12:12.953Z,16.40
2019-05-16T11:14:48.915Z,16.30
2019-05-16T11:17:19.187Z,16.40
2019-05-16T11:19:55.118Z,16.30
2019-05-16T11:22:29.521Z,16.30
2019-05-16T11:25:16.403Z,16.30
2019-05-16T11:27:34.329Z,16.30
2019-05-16T11:30:13.254Z,16.30
2019-05-16T11:32:49.549Z,16.30
2019-05-16T11:35:19.713Z,16.30
2019-05-16T11:37:57.085Z,16.30
2019-05-16T11:40:29.729Z,16.20
2019-05-16T11:43:11.390Z,16.30
2019-05-16T11:45:36.761Z,16.40
2019-05-16T11:48:12.914Z,16.40
2019-05-16T11:50:42.568Z,16.40
2019-05-16T11:53:19.213Z,16.40
2019-05-16T11:55:59.993Z,16.40
2019-05-16T11:58:39.595Z,16.40
2019-05-16T12:01:09.343Z,16.30
2019-05-16T12:03:46.881Z,16.30
2019-05-16T12:06:17.137Z,16.30
2019-05-16T12:08:46.938Z,16.30
2019-05-16T12:11:29.069Z,16.20
2019-05-16T12:14:07.175Z,16.10
2019-05-16T12:16:37.927Z,16.10
2019-05-16T12:19:14.246Z,16.20
2019-05-16T12:21:43.908Z,16.10
2019-05-16T12:24:31.505Z,16.10
2019-05-16T12:26:51.870Z,16.00
2019-05-16T12:29:28.318Z,16.00
2019-05-16T12:32:02.564Z,16.00
2019-05-16T12:34:36.863Z,15.90
2019-05-16T12:37:07.428Z,15.90
2019-05-16T12:39:43.626Z,15.90
2019-05-16T12:42:13.294Z,15.70
2019-05-16T12:44:51.211Z,15.70
2019-05-16T12:47:20.873Z,15.70
2019-05-16T12:49:57.808Z,15.60
2019-05-16T12:52:34.302Z,15.40
2019-05-16T12:55:12.202Z,15.40
2019-05-16T12:57:58.712Z,15.40
2019-05-16T13:00:32.235Z,15.40
2019-05-16T13:03:08.202Z,15.40
2019-05-16T13:05:47.570Z,15.40
2019-05-16T13:08:17.359Z,15.30
2019-05-16T13:10:54.204Z,15.30
2019-05-16T13:13:24.364Z,15.40
2019-05-16T13:16:01.098Z,15.30
2019-05-16T13:18:30.708Z,15.30
2019-05-16T13:21:07.427Z,15.30
2019-05-16T13:23:37.028Z,15.20
2019-05-16T13:26:13.323Z,15.30
2019-05-16T13:28:42.918Z,15.30
2019-05-16T13:31:12.583Z,15.40
2019-05-16T13:33:49.488Z,15.50
2019-05-16T13:36:19.348Z,15.50
2019-05-16T13:38:57.463Z,15.40
2019-05-16T13:41:27.423Z,15.50
2019-05-16T13:44:17.844Z,15.30
2019-05-16T13:46:37.050Z,15.30
2019-05-16T13:49:12.896Z,15.40
2019-05-16T13:51:43.852Z,15.40
2019-05-16T13:54:19.703Z,15.40
2019-05-16T13:56:49.296Z,15.50
2019-05-16T13:59:31.761Z,15.40
2019-05-16T14:02:08.336Z,15.40
2019-05-16T14:04:44.137Z,15.30
2019-05-16T14:07:13.731Z,15.30
2019-05-16T14:09:49.901Z,15.40
2019-05-16T14:12:26.756Z,15.40
2019-05-16T14:14:58.720Z,15.50
2019-05-16T14:17:28.330Z,15.50
2019-05-16T14:20:13.888Z,15.50
2019-05-16T14:22:36.441Z,15.50
2019-05-16T14:25:08.713Z,15.60
2019-05-16T14:27:44.633Z,15.60
2019-05-16T14:30:17.756Z,15.60
2019-05-16T14:32:54.064Z,15.60
2019-05-16T14:35:23.738Z,15.70
2019-05-16T14:38:01.057Z,15.60
2019-05-16T14:40:30.799Z,15.50
2019-05-16T14:43:08.313Z,15.50
2019-05-16T14:45:38.380Z,15.40
2019-05-16T14:48:15.063Z,15.40
2019-05-16T14:50:47.071Z,15.30
2019-05-16T14:53:22.475Z,15.20
2019-05-16T14:55:52.076Z,15.30
2019-05-16T14:58:30.832Z,15.20
2019-05-16T15:01:12.794Z,15.30
2019-05-16T15:03:48.615Z,15.30
2019-05-16T15:06:18.467Z,15.30
2019-05-16T15:08:48.183Z,15.20
2019-05-16T15:11:28.196Z,15.30
2019-05-16T15:14:06.918Z,15.30
2019-05-16T15:16:35.833Z,15.30
2019-05-16T15:19:07.979Z,15.40
2019-05-16T15:21:43.045Z,15.40
2019-05-16T15:24:12.938Z,15.50
2019-05-16T15:26:49.200Z,15.60
2019-05-16T15:29:18.878Z,15.70
2019-05-16T15:31:57.345Z,15.70
2019-05-16T15:34:30.769Z,15.70
2019-05-16T15:37:08.211Z,15.80
2019-05-16T15:39:47.924Z,15.90
2019-05-16T15:42:18.226Z,15.90
2019-05-16T15:44:47.885Z,15.90
2019-05-16T15:47:24.621Z,16.00
2019-05-16T15:49:56.650Z,16.10
2019-05-16T15:52:33.824Z,16.20
2019-05-16T15:55:03.505Z,16.20
2019-05-16T15:57:33.772Z,16.10
2019-05-16T16:00:11.004Z,16.20
2019-05-16T16:02:53.708Z,16.20
2019-05-16T16:05:23.326Z,16.20
2019-05-16T16:08:06.905Z,16.30
2019-05-16T16:10:47.681Z,16.50
2019-05-16T16:13:19.738Z,16.60
2019-05-16T16:15:57.486Z,16.50
2019-05-16T16:18:27.018Z,16.40
2019-05-16T16:21:07.548Z,16.40
2019-05-16T16:23:37.267Z,16.40
2019-05-16T16:26:14.322Z,16.40
2019-05-16T16:28:44.015Z,16.30
2019-05-16T16:31:13.690Z,16.30
2019-05-16T16:33:49.558Z,16.30
2019-05-16T16:36:19.209Z,16.40
2019-05-16T16:38:56.722Z,16.40
2019-05-16T16:41:27.635Z,16.40
2019-05-16T16:44:07.712Z,16.40
2019-05-16T16:46:37.632Z,16.40
2019-05-16T16:49:13.965Z,16.40
2019-05-16T16:51:50.321Z,16.40
2019-05-16T16:54:20.071Z,16.40
2019-05-16T16:56:55.905Z,16.40
2019-05-16T16:59:28.049Z,16.40
2019-05-16T17:02:17.208Z,16.30
2019-05-16T17:04:50.827Z,16.30
2019-05-16T17:07:27.242Z,16.40
2019-05-16T17:09:56.431Z,16.50
2019-05-16T17:12:33.017Z,16.60
2019-05-16T17:15:09.323Z,16.60
2019-05-16T17:17:46.633Z,16.60
2019-05-16T17:20:18.411Z,16.60
2019-05-16T17:22:57.166Z,16.70
2019-05-16T17:25:32.928Z,16.80
2019-05-16T17:28:03.002Z,16.80
2019-05-16T17:30:39.819Z,16.80
2019-05-16T17:33:09.480Z,16.80
2019-05-16T17:35:40.711Z,16.80
2019-05-16T17:38:17.275Z,16.80
2019-05-16T17:40:47.128Z,16.90
2019-05-16T17:43:16.829Z,16.90
2019-05-16T17:45:53.184Z,17.00
2019-05-16T17:48:30.663Z,17.00
2019-05-16T17:51:06.751Z,17.00
2019-05-16T17:53:45.366Z,17.00
2019-05-16T17:56:22.142Z,17.00
2019-05-16T17:58:58.934Z,17.00
2019-05-16T18:01:35.217Z,17.00
2019-05-16T18:04:18.323Z,17.00
2019-05-16T18:06:48.080Z,17.00
2019-05-16T18:09:24.852Z,17.00
2019-05-16T18:11:54.552Z,17.00
2019-05-16T18:14:30.671Z,17.00
2019-05-16T18:17:02.258Z,17.10
2019-05-16T18:19:38.659Z,17.00
2019-05-16T18:22:08.366Z,17.00
2019-05-16T18:24:51.336Z,17.00
2019-05-16T18:27:20.941Z,17.10
2019-05-16T18:29:57.025Z,17.00
2019-05-16T18:32:26.752Z,17.00
2019-05-16T18:35:02.947Z,17.10
2019-05-16T18:37:33.419Z,17.00
2019-05-16T18:40:09.821Z,17.00
2019-05-16T18:42:39.423Z,17.10
2019-05-16T18:45:16.497Z,17.00
2019-05-16T18:47:52.597Z,17.00
2019-05-16T18:50:22.955Z,17.00
2019-05-16T18:52:59.499Z,17.00
2019-05-16T18:55:37.054Z,16.90
2019-05-16T18:58:08.709Z,16.90
2019-05-16T19:00:46.647Z,16.90
2019-05-16T19:03:22.764Z,16.80
2019-05-16T19:05:59.252Z,16.80
2019-05-16T19:08:28.945Z,16.80
2019-05-16T19:11:07.461Z,16.80
2019-05-16T19:13:36.999Z,16.80
2019-05-16T19:16:20.295Z,16.90
2019-05-16T19:18:49.892Z,16.90
2019-05-16T19:21:19.554Z,16.80
2019-05-16T19:23:56.342Z,16.90
2019-05-16T19:26:32.746Z,16.80
2019-05-16T19:29:09.105Z,16.80
2019-05-16T19:31:50.239Z,16.90
2019-05-16T19:34:18.303Z,16.80
2019-05-16T19:36:54.649Z,16.80
2019-05-16T19:39:26.048Z,16.80
2019-05-16T19:42:01.877Z,16.70
2019-05-16T19:44:38.520Z,16.70
2019-05-16T19:47:08.136Z,16.70
2019-05-16T19:49:46.452Z,16.70
2019-05-16T19:52:23.153Z,16.60
2019-05-16T19:54:59.135Z,16.60
2019-05-16T19:57:37.749Z,16.60
2019-05-16T20:00:10.074Z,16.50
2019-05-16T20:02:47.331Z,16.50
2019-05-16T20:05:30.195Z,16.60
2019-05-16T20:07:59.652Z,16.60
2019-05-16T20:10:42.089Z,16.60
2019-05-16T20:13:11.636Z,16.60
2019-05-16T20:15:41.680Z,16.60
2019-05-16T20:18:19.440Z,16.60
2019-05-16T20:20:49.164Z,16.50
2019-05-16T20:23:27.709Z,16.50
2019-05-16T20:25:57.254Z,16.50
2019-05-16T20:28:33.901Z,16.50
2019-05-16T20:31:13.166Z,16.50
2019-05-16T20:33:42.627Z,16.50
2019-05-16T20:36:19.141Z,16.50
2019-05-16T20:38:48.744Z,16.50
2019-05-16T20:41:24.809Z,16.50
2019-05-16T20:43:57.064Z,16.50
2019-05-16T20:46:33.605Z,16.50
2019-05-16T20:49:03.219Z,16.40
2019-05-16T20:51:39.362Z,16.40
2019-05-16T20:54:08.895Z,16.40
2019-05-16T20:56:46.484Z,16.40
2019-05-16T20:59:17.190Z,16.40
2019-05-16T21:01:52.990Z,16.40
2019-05-16T21:04:29.562Z,16.40
2019-05-16T21:07:12.471Z,16.40
2019-05-16T21:09:48.206Z,16.30
2019-05-16T21:12:26.484Z,16.30
2019-05-16T21:15:02.567Z,16.30
2019-05-16T21:17:32.097Z,16.30
2019-05-16T21:20:08.701Z,16.30
2019-05-16T21:22:38.164Z,16.30
2019-05-16T21:25:16.891Z,16.30
2019-05-16T21:27:46.766Z,16.30
2019-05-16T21:30:23.649Z,16.20
2019-05-16T21:32:53.190Z,16.20
2019-05-16T21:35:30.821Z,16.20
2019-05-16T21:38:00.348Z,16.20
2019-05-16T21:40:37.162Z,16.20
2019-05-16T21:43:07.485Z,16.20
2019-05-16T21:45:43.418Z,16.20
2019-05-16T21:48:12.877Z,16.20
2019-05-16T21:50:49.686Z,16.20
2019-05-16T21:53:19.291Z,16.20
2019-05-16T21:55:56.373Z,16.20
2019-05-16T21:58:26.747Z,16.20
2019-05-16T22:01:06.622Z,16.20
2019-05-16T22:03:36.785Z,16.20
2019-05-16T22:06:19.496Z,16.10
2019-05-16T22:09:02.476Z,16.10
2019-05-16T22:11:46.530Z,16.10
2019-05-16T22:14:18.643Z,16.10
2019-05-16T22:16:56.834Z,16.10
2019-05-16T22:19:27.053Z,16.20
2019-05-16T22:22:02.933Z,16.10
2019-05-16T22:24:39.466Z,16.10
2019-05-16T22:27:08.997Z,16.20
2019-05-16T22:29:45.075Z,16.20
2019-05-16T22:32:16.455Z,16.20
2019-05-16T22:34:52.080Z,16.20
2019-05-16T22:37:21.674Z,16.20
2019-05-16T22:39:59.747Z,16.20
2019-05-16T22:42:28.708Z,16.20
2019-05-16T22:45:08.510Z,16.20
2019-05-16T22:47:37.292Z,16.30
2019-05-16T22:50:17.681Z,16.30
2019-05-16T22:52:47.463Z,16.30
2019-05-16T22:55:18.019Z,16.20
2019-05-16T22:57:56.452Z,16.30
2019-05-16T23:00:34.488Z,16.20
2019-05-16T23:03:04.079Z,16.30
2019-05-16T23:05:40.046Z,16.30
2019-05-16T23:08:16.512Z,16.30
2019-05-16T23:10:58.568Z,16.30
2019-05-16T23:13:28.087Z,16.30
2019-05-16T23:16:06.551Z,16.30
2019-05-16T23:18:37.510Z,16.30
2019-05-16T23:21:13.619Z,16.30
2019-05-16T23:23:43.076Z,16.10
2019-05-16T23:26:19.607Z,16.20
2019-05-16T23:28:49.063Z,16.20
2019-05-16T23:31:27.159Z,16.20
2019-05-16T23:33:56.688Z,16.20
2019-05-16T23:36:33.462Z,16.20
2019-05-16T23:39:03.151Z,16.20
2019-05-16T23:41:39.824Z,16.30
2019-05-16T23:44:09.369Z,16.30
2019-05-16T23:46:38.845Z,16.20
2019-05-16T23:49:16.817Z,16.20
2019-05-16T23:51:53.119Z,16.20
2019-05-16T23:54:22.602Z,16.20
2019-05-16T23:56:52.060Z,16.20
2019-05-16T23:59:28.111Z,16.30
